Salisbury, NH (03268)

9:46 AM EDT on October 31, 2014 (GMT -0400)
I-393/Route 4 Chichester, NH | Change Station
CLOSE
Current Station
Personal Weather Station
Location: Chichester, NH
Elevation: 456 ft
Nearby Weather Stations

Elev 456 ft 43.24 °N, 71.45 °W | Updated 6 seconds ago

Overcast
Overcast
42.2 °F
Feels Like 42 °F
N
0.0
Wind Variable Wind from NW
Gusts 2.0 mph

Today
High -- | Low -- °F
--% Chance of Precip.
Yesterday
High -- | Low -- °F
Precip. -- in
7:19 AM 5:38 PM
First Quarter, 55% visible
Pressure 30.07 in
Visibility 10.0 miles
Clouds Overcast 5500 ft
Windchill 42 °F
Dew Point 38 °F
Humidity 86%
Rainfall 0.00 in
Snow Depth Not available.
UV 0 out of 12
Pollen .10 out of 12
Air Quality Not available.
Flu Activity Not available.
METAR KCON 311251Z AUTO 00000KT 10SM OVC055 05/03 A3006 RMK AO2 SLP183 T00500028

More Conditions Fewer Conditions

Pressure 30.07 in
Visibility 10.0 miles
Clouds Overcast 5500 ft
Windchill 42 °F
Dew Point 38 °F
Humidity 86%
Rainfall 0.00 in
Snow Depth Not available.
UV 0 out of 12
Pollen .10 out of 12
Air Quality Not available.
Flu Activity Not available.
METAR KCON 311251Z AUTO 00000KT 10SM OVC055 05/03 A3006 RMK AO2 SLP183 T00500028

More Conditions Fewer Conditions

10-Day Weather Forecast

Almanac

Astronomy

Oct. 31, 2014 Rise Set
Actual Time
Civil Twilight
Nautical Twilight
Astronomical Twilight
Moon
Length of Visible Light
Length of Day
Tomorrow will be .
, % of the Moon is Illuminated

Today's Extremes

State Highs State Lows

Community

WunderPhotos

Upload Photos

1,766,612 photos uploaded!

WunderBlogs® & News

Nearby

Air Quality

  Air Quality AQ Index Pollutant
Not available.

Snow Depth

Station Depth Elevation

Earthquake Activity

City Distance Mag. Time & Date
Minimum magnitude displayed is 2.5.

Coastal Water Temperatures

Place Temperature

Nearby Weather Stations